createdAt,value
2023-03-27T00:00:46.826Z,14.80
2023-03-27T00:03:50.243Z,14.60
2023-03-27T00:06:55.171Z,14.45
2023-03-27T00:09:57.584Z,13.82
2023-03-27T00:13:05.538Z,14.48
2023-03-27T00:16:08.071Z,14.98
2023-03-27T00:19:10.037Z,13.45
2023-03-27T00:22:11.877Z,14.32
2023-03-27T00:25:25.047Z,13.23
2023-03-27T00:31:30.831Z,14.40
2023-03-27T00:34:32.797Z,14.15
2023-03-27T00:37:43.017Z,14.73
2023-03-27T00:40:46.877Z,14.73
2023-03-27T00:43:54.209Z,14.52
2023-03-27T00:46:58.263Z,15.45
2023-03-27T00:50:05.934Z,14.20
2023-03-27T00:53:15.516Z,12.73
2023-03-27T00:56:18.071Z,12.82
2023-03-27T00:59:26.468Z,11.90
2023-03-27T01:02:30.953Z,11.98
2023-03-27T01:05:35.328Z,12.77
2023-03-27T01:08:38.090Z,11.93
2023-03-27T01:11:42.368Z,11.95
2023-03-27T01:14:44.205Z,12.27
2023-03-27T01:18:02.663Z,11.02
2023-03-27T01:21:18.502Z,11.00
2023-03-27T01:24:43.422Z,11.70
2023-03-27T01:28:04.054Z,11.20
2023-03-27T01:31:35.179Z,11.52
2023-03-27T01:35:01.751Z,11.35
2023-03-27T01:38:33.356Z,11.35
2023-03-27T01:41:47.580Z,11.70
2023-03-27T01:44:58.168Z,11.23
2023-03-27T01:48:22.561Z,11.30
2023-03-27T01:51:36.318Z,11.57
2023-03-27T01:54:55.866Z,10.40
2023-03-27T01:58:07.409Z,10.60
2023-03-27T02:01:18.185Z,11.88
2023-03-27T02:04:27.705Z,11.20
2023-03-27T02:07:37.527Z,11.20
2023-03-27T02:10:43.822Z,10.73
2023-03-27T02:14:04.213Z,11.15
2023-03-27T02:17:13.895Z,11.38
2023-03-27T02:20:16.457Z,11.65
2023-03-27T02:23:18.430Z,10.52
2023-03-27T02:26:23.351Z,10.80
2023-03-27T02:29:44.594Z,10.57
2023-03-27T02:32:58.887Z,10.32
2023-03-27T02:36:29.613Z,11.00
2023-03-27T02:39:38.294Z,10.02
2023-03-27T02:42:54.385Z,9.65
2023-03-27T02:46:14.843Z,10.85
2023-03-27T02:49:27.760Z,10.40
2023-03-27T02:52:37.044Z,9.68
2023-03-27T02:55:43.432Z,10.68
2023-03-27T02:59:00.257Z,10.95
2023-03-27T03:02:21.286Z,10.88
2023-03-27T03:05:30.440Z,10.38
2023-03-27T03:08:38.428Z,11.30
2023-03-27T03:11:50.411Z,11.95
2023-03-27T03:14:53.489Z,12.85
2023-03-27T03:17:55.480Z,11.88
2023-03-27T03:20:57.612Z,11.03
2023-03-27T03:24:00.217Z,11.80
2023-03-27T03:27:04.027Z,9.93
2023-03-27T03:30:09.905Z,11.07
2023-03-27T03:33:21.288Z,10.05
2023-03-27T03:36:24.005Z,10.20
2023-03-27T03:39:26.186Z,9.85
2023-03-27T03:42:29.553Z,12.38
2023-03-27T03:45:33.710Z,13.02
2023-03-27T03:48:35.614Z,12.20
2023-03-27T03:51:37.523Z,11.55
2023-03-27T03:54:40.461Z,11.77
2023-03-27T03:57:47.170Z,11.93
2023-03-27T04:00:54.729Z,12.18
2023-03-27T04:04:13.909Z,11.50
2023-03-27T04:07:41.342Z,12.70
2023-03-27T04:11:06.226Z,13.40
2023-03-27T04:14:33.394Z,12.70
2023-03-27T04:17:40.030Z,11.93
2023-03-27T04:20:49.766Z,11.85
2023-03-27T04:23:53.447Z,12.98
2023-03-27T04:27:07.041Z,12.50
2023-03-27T04:30:29.141Z,12.38
2023-03-27T04:33:52.540Z,12.50
2023-03-27T04:37:29.308Z,12.55
2023-03-27T04:41:02.083Z,13.85
2023-03-27T04:44:04.283Z,12.93
2023-03-27T04:47:08.835Z,13.10
2023-03-27T04:50:15.428Z,11.85
2023-03-27T04:53:20.619Z,13.15
2023-03-27T04:56:27.751Z,11.32
2023-03-27T04:59:32.025Z,12.18
2023-03-27T05:02:57.726Z,11.05
2023-03-27T05:09:15.222Z,11.07
2023-03-27T05:12:21.037Z,11.45
2023-03-27T05:15:28.130Z,11.88
2023-03-27T05:18:31.335Z,11.38
2023-03-27T05:21:33.388Z,12.00
2023-03-27T05:24:37.951Z,11.05
2023-03-27T05:27:48.551Z,12.60
2023-03-27T05:30:55.046Z,14.23
2023-03-27T05:33:59.068Z,10.80
2023-03-27T05:37:05.897Z,11.73
2023-03-27T05:40:15.716Z,10.45
2023-03-27T05:43:17.962Z,10.07
2023-03-27T05:46:21.075Z,10.35
2023-03-27T05:49:42.917Z,11.00
2023-03-27T05:52:47.826Z,13.20
2023-03-27T05:55:49.725Z,13.20
2023-03-27T05:59:11.134Z,10.68
2023-03-27T06:02:20.584Z,14.33
2023-03-27T06:05:30.606Z,16.98
2023-03-27T06:08:32.565Z,14.80
2023-03-27T06:11:34.803Z,16.98
2023-03-27T06:14:37.112Z,15.40
2023-03-27T06:17:58.530Z,11.10
2023-03-27T06:21:05.739Z,9.20
2023-03-27T06:27:10.969Z,9.27
2023-03-27T06:30:17.544Z,9.25
2023-03-27T06:33:33.262Z,10.70
2023-03-27T06:36:38.313Z,8.70
2023-03-27T06:39:40.315Z,8.37
2023-03-27T06:42:52.900Z,23.40
2023-03-27T06:46:03.302Z,9.10
2023-03-27T06:49:25.890Z,8.52
2023-03-27T06:52:30.243Z,7.93
2023-03-27T06:55:44.685Z,7.85
2023-03-27T06:58:52.586Z,7.45
2023-03-27T07:05:31.103Z,7.68
2023-03-27T07:08:33.868Z,7.22
2023-03-27T07:11:37.585Z,7.15
2023-03-27T07:14:44.692Z,6.90
2023-03-27T07:17:58.330Z,6.68
2023-03-27T07:21:00.729Z,6.97
2023-03-27T07:24:02.771Z,6.60
2023-03-27T07:27:11.110Z,6.18
2023-03-27T07:30:14.400Z,5.88
2023-03-27T07:33:20.773Z,4.70
2023-03-27T07:36:23.215Z,4.88
2023-03-27T07:39:32.473Z,5.18
2023-03-27T07:42:35.642Z,4.75
2023-03-27T07:45:41.699Z,4.30
2023-03-27T07:48:46.714Z,4.40
2023-03-27T07:52:00.596Z,3.92
2023-03-27T07:55:14.318Z,3.95
2023-03-27T07:58:21.610Z,4.22
2023-03-27T08:01:26.117Z,4.18
2023-03-27T08:04:28.543Z,4.13
2023-03-27T08:07:48.609Z,3.30
2023-03-27T08:14:13.259Z,3.90
2023-03-27T08:17:16.659Z,3.53
2023-03-27T08:20:23.034Z,3.65
2023-03-27T08:23:27.311Z,3.60
2023-03-27T08:26:52.365Z,2.60
2023-03-27T08:29:54.856Z,3.10
2023-03-27T08:32:58.112Z,3.03
2023-03-27T08:36:01.436Z,2.97
2023-03-27T08:39:05.960Z,2.90
2023-03-27T08:42:21.440Z,3.22
2023-03-27T08:45:30.149Z,2.65
2023-03-27T08:48:46.839Z,2.58
2023-03-27T08:52:06.365Z,2.80
2023-03-27T08:55:22.417Z,2.00
2023-03-27T08:58:38.164Z,2.50
2023-03-27T09:02:23.754Z,2.20
2023-03-27T09:05:40.923Z,2.28
2023-03-27T09:09:11.383Z,2.00
2023-03-27T09:12:40.111Z,2.03
2023-03-27T09:16:03.893Z,1.92
2023-03-27T09:19:48.694Z,1.65
2023-03-27T09:23:03.646Z,1.60
2023-03-27T09:26:35.971Z,1.33
2023-03-27T09:29:41.612Z,1.45
2023-03-27T09:33:08.518Z,1.60
2023-03-27T09:36:11.037Z,1.40
2023-03-27T09:39:17.813Z,1.48
2023-03-27T09:42:30.909Z,1.20
2023-03-27T09:45:39.195Z,1.40
2023-03-27T09:48:50.455Z,1.75
2023-03-27T09:51:56.779Z,1.50
2023-03-27T09:55:31.280Z,1.58
2023-03-27T09:58:45.506Z,1.42
2023-03-27T10:01:49.075Z,1.30
2023-03-27T10:05:22.395Z,1.52
2023-03-27T10:08:40.829Z,1.40
2023-03-27T10:11:50.975Z,1.20
2023-03-27T10:15:00.048Z,1.30
2023-03-27T10:18:07.454Z,1.40
2023-03-27T10:21:17.066Z,1.83
2023-03-27T10:24:34.525Z,1.55
2023-03-27T10:28:18.446Z,1.40
2023-03-27T10:31:52.813Z,1.40
2023-03-27T10:35:24.207Z,1.73
2023-03-27T10:38:52.973Z,1.40
2023-03-27T10:42:22.898Z,1.20
2023-03-27T10:45:31.112Z,1.40
2023-03-27T10:48:49.073Z,1.63
2023-03-27T10:52:17.097Z,1.60
2023-03-27T10:56:05.961Z,1.83
2023-03-27T10:59:25.486Z,1.60
2023-03-27T11:03:00.288Z,1.50
2023-03-27T11:06:08.240Z,1.45
2023-03-27T11:09:34.351Z,1.10
2023-03-27T11:12:54.108Z,1.10
2023-03-27T11:16:37.097Z,1.10
2023-03-27T11:20:07.577Z,1.23
2023-03-27T11:23:42.536Z,1.20
2023-03-27T11:27:23.460Z,1.30
2023-03-27T11:30:40.528Z,1.30
2023-03-27T11:33:57.212Z,1.40
2023-03-27T11:37:16.888Z,1.30
2023-03-27T11:40:24.668Z,1.20
2023-03-27T11:43:37.987Z,1.20
2023-03-27T11:46:45.636Z,1.25
2023-03-27T11:49:55.162Z,1.50
2023-03-27T11:53:23.532Z,1.50
2023-03-27T11:57:02.872Z,1.40
2023-03-27T12:00:36.470Z,1.63
2023-03-27T12:04:21.909Z,1.60
2023-03-27T12:07:57.776Z,1.73
2023-03-27T12:11:07.295Z,1.50
2023-03-27T12:14:41.160Z,1.98
2023-03-27T12:18:04.034Z,1.45
2023-03-27T12:21:20.654Z,1.50
2023-03-27T12:24:59.759Z,1.20
2023-03-27T12:32:32.777Z,1.40
2023-03-27T12:36:03.078Z,1.33
2023-03-27T12:39:26.300Z,1.42
2023-03-27T12:42:54.650Z,1.63
2023-03-27T12:46:17.084Z,1.13
2023-03-27T12:49:22.060Z,1.35
2023-03-27T12:52:30.395Z,1.10
2023-03-27T12:56:16.595Z,1.33
2023-03-27T12:59:27.803Z,1.20
2023-03-27T13:02:42.228Z,1.40
2023-03-27T13:05:53.189Z,1.40
2023-03-27T13:09:13.689Z,1.30
2023-03-27T13:12:31.112Z,1.30
2023-03-27T13:16:02.504Z,1.20
2023-03-27T13:19:27.464Z,1.40
2023-03-27T13:22:39.596Z,1.10
2023-03-27T13:26:24.621Z,1.42
2023-03-27T13:29:34.054Z,1.38
2023-03-27T13:33:39.808Z,1.20
2023-03-27T13:36:50.414Z,3.42
2023-03-27T13:40:27.378Z,2.00
2023-03-27T13:43:43.316Z,1.27
2023-03-27T13:47:09.129Z,1.27
2023-03-27T13:50:23.680Z,1.10
2023-03-27T13:53:40.943Z,1.05
2023-03-27T13:57:11.748Z,0.90
2023-03-27T14:00:54.584Z,1.08
2023-03-27T14:04:21.237Z,0.90
2023-03-27T14:07:41.944Z,1.38
2023-03-27T14:11:07.781Z,1.67
2023-03-27T14:17:32.634Z,1.27
2023-03-27T14:23:50.756Z,1.38
2023-03-27T14:33:23.039Z,1.27
2023-03-27T14:36:34.140Z,1.30
2023-03-27T14:39:39.030Z,1.30
2023-03-27T14:42:53.980Z,2.00
2023-03-27T14:46:01.062Z,2.50
2023-03-27T14:49:07.532Z,2.33
2023-03-27T14:52:10.836Z,1.17
2023-03-27T14:55:36.955Z,1.25
2023-03-27T14:59:25.718Z,1.45
2023-03-27T15:02:39.403Z,1.40
2023-03-27T15:06:04.697Z,1.25
2023-03-27T15:09:19.404Z,1.30
2023-03-27T15:12:47.292Z,1.08
2023-03-27T15:15:50.715Z,1.20
2023-03-27T15:19:09.856Z,1.23
2023-03-27T15:22:35.341Z,1.27
2023-03-27T15:26:01.422Z,1.70
2023-03-27T15:29:14.049Z,1.95
2023-03-27T15:35:38.246Z,3.97
2023-03-27T15:38:41.199Z,4.38
2023-03-27T15:41:44.073Z,4.80
2023-03-27T15:44:49.290Z,5.75
2023-03-27T15:48:02.994Z,9.30
2023-03-27T15:51:10.326Z,21.88
2023-03-27T15:54:27.635Z,18.08
2023-03-27T15:57:29.639Z,14.00
2023-03-27T16:00:31.676Z,16.23
2023-03-27T16:03:34.965Z,16.65
2023-03-27T16:06:47.633Z,18.65
2023-03-27T16:09:56.414Z,23.10
2023-03-27T16:13:02.987Z,24.88
2023-03-27T16:16:20.875Z,30.15
2023-03-27T16:19:22.717Z,28.90
2023-03-27T16:22:34.127Z,31.40
2023-03-27T16:25:36.393Z,42.42
2023-03-27T16:28:40.209Z,54.75
2023-03-27T16:31:42.118Z,38.88
2023-03-27T16:34:44.444Z,32.72
2023-03-27T16:37:46.468Z,28.13
2023-03-27T16:40:49.066Z,28.27
2023-03-27T16:43:53.366Z,25.45
2023-03-27T16:46:55.314Z,21.70
2023-03-27T16:50:10.236Z,17.33
2023-03-27T16:53:13.412Z,23.60
2023-03-27T16:56:17.325Z,25.53
2023-03-27T16:59:19.827Z,25.67
2023-03-27T17:02:26.795Z,27.73
2023-03-27T17:05:34.068Z,29.75
2023-03-27T17:08:37.290Z,31.48
2023-03-27T17:11:39.277Z,37.72
2023-03-27T17:14:43.496Z,39.33
2023-03-27T17:17:45.952Z,40.22
2023-03-27T17:20:47.842Z,33.78
2023-03-27T17:24:00.938Z,35.47
2023-03-27T17:27:03.130Z,34.15
2023-03-27T17:30:08.577Z,33.60
2023-03-27T17:33:15.643Z,32.13
2023-03-27T17:36:26.783Z,30.90
2023-03-27T17:39:37.441Z,26.63
2023-03-27T17:42:39.384Z,26.67
2023-03-27T17:45:43.502Z,23.50
2023-03-27T17:48:46.036Z,24.75
2023-03-27T17:51:51.778Z,29.80
2023-03-27T17:54:54.278Z,37.58
2023-03-27T17:58:08.886Z,42.17
2023-03-27T18:01:21.992Z,34.83
2023-03-27T18:04:24.634Z,36.80
2023-03-27T18:07:29.658Z,41.08
2023-03-27T18:10:33.594Z,40.85
2023-03-27T18:13:39.647Z,45.60
2023-03-27T18:16:41.580Z,72.78
2023-03-27T18:19:43.595Z,103.63
2023-03-27T18:22:45.906Z,98.85
2023-03-27T18:25:48.300Z,84.63
2023-03-27T18:28:50.191Z,65.45
2023-03-27T18:31:56.113Z,91.07
2023-03-27T18:34:58.082Z,93.25
2023-03-27T18:37:59.994Z,118.65
2023-03-27T18:41:02.835Z,179.02
2023-03-27T18:47:08.732Z,72.95
2023-03-27T18:50:12.564Z,45.88
2023-03-27T18:53:14.420Z,48.28
2023-03-27T18:56:18.840Z,47.90
2023-03-27T18:59:20.898Z,45.73
2023-03-27T19:02:23.030Z,30.53
2023-03-27T19:05:24.978Z,26.70
2023-03-27T19:08:29.301Z,35.13
2023-03-27T19:11:31.373Z,33.97
2023-03-27T19:14:54.588Z,30.02
2023-03-27T19:21:26.797Z,28.30
2023-03-27T19:24:40.567Z,26.73
2023-03-27T19:27:46.416Z,27.80
2023-03-27T19:30:48.443Z,23.50
2023-03-27T19:33:50.383Z,23.87
2023-03-27T19:36:55.178Z,24.10
2023-03-27T19:40:02.392Z,26.25
2023-03-27T19:43:04.438Z,34.38
2023-03-27T19:46:15.826Z,39.20
2023-03-27T19:49:18.582Z,33.70
2023-03-27T19:52:24.693Z,37.50
2023-03-27T19:55:26.554Z,32.53
2023-03-27T19:58:31.014Z,24.42
2023-03-27T20:01:33.192Z,22.98
2023-03-27T20:04:42.669Z,19.42
2023-03-27T20:07:45.869Z,18.48
2023-03-27T20:10:50.987Z,20.02
2023-03-27T20:13:57.225Z,25.35
2023-03-27T20:16:59.229Z,29.77
2023-03-27T20:20:01.208Z,34.10
2023-03-27T20:23:06.124Z,30.53
2023-03-27T20:26:08.660Z,24.70
2023-03-27T20:29:22.131Z,14.73
2023-03-27T20:32:24.197Z,14.48
2023-03-27T20:35:26.264Z,11.87
2023-03-27T20:38:36.566Z,11.73
2023-03-27T20:41:39.238Z,12.60
2023-03-27T20:44:58.160Z,10.80
2023-03-27T20:48:05.888Z,10.68
2023-03-27T20:51:15.009Z,11.73
2023-03-27T20:54:17.047Z,13.93
2023-03-27T20:57:22.244Z,12.37
2023-03-27T21:00:26.797Z,13.38
2023-03-27T21:03:32.062Z,10.77
2023-03-27T21:06:33.989Z,11.35
2023-03-27T21:09:39.091Z,9.50
2023-03-27T21:12:41.034Z,9.32
2023-03-27T21:15:43.942Z,9.37
2023-03-27T21:21:50.787Z,11.05
2023-03-27T21:24:52.654Z,12.18
2023-03-27T21:27:54.645Z,13.40
2023-03-27T21:30:56.504Z,10.33
2023-03-27T21:34:00.911Z,10.00
2023-03-27T21:37:02.996Z,10.25
2023-03-27T21:40:11.297Z,9.77
2023-03-27T21:43:16.361Z,9.43
2023-03-27T21:46:23.643Z,9.80
2023-03-27T21:49:28.035Z,10.55
2023-03-27T21:52:29.890Z,9.68
2023-03-27T21:55:33.284Z,9.82
2023-03-27T21:58:36.156Z,10.00
2023-03-27T22:04:43.299Z,13.25
2023-03-27T22:07:45.551Z,14.07
2023-03-27T22:10:47.448Z,11.35
2023-03-27T22:13:49.407Z,10.43
2023-03-27T22:16:56.714Z,9.57
2023-03-27T22:20:00.352Z,10.85
2023-03-27T22:23:02.236Z,10.70
2023-03-27T22:26:04.195Z,9.32
2023-03-27T22:29:16.664Z,9.03
2023-03-27T22:32:20.992Z,9.02
2023-03-27T22:35:22.989Z,10.30
2023-03-27T22:38:24.892Z,9.60
2023-03-27T22:41:27.196Z,10.35
2023-03-27T22:44:30.991Z,10.75
2023-03-27T22:47:35.963Z,10.25
2023-03-27T22:50:37.869Z,8.93
2023-03-27T22:53:40.609Z,10.32
2023-03-27T22:56:44.417Z,9.73
2023-03-27T22:59:54.258Z,9.63
2023-03-27T23:02:56.350Z,9.25
2023-03-27T23:06:02.571Z,7.90
2023-03-27T23:09:04.545Z,8.98
2023-03-27T23:12:16.752Z,8.73
2023-03-27T23:15:30.762Z,9.17
2023-03-27T23:18:32.995Z,10.30
2023-03-27T23:21:37.277Z,11.70
2023-03-27T23:24:39.105Z,11.02
2023-03-27T23:27:41.459Z,10.80
2023-03-27T23:30:45.694Z,11.48
2023-03-27T23:33:50.541Z,10.43
2023-03-27T23:36:57.038Z,9.80
2023-03-27T23:40:00.872Z,9.55
2023-03-27T23:43:05.546Z,9.90
2023-03-27T23:46:20.835Z,9.48
2023-03-27T23:49:24.905Z,9.45
2023-03-27T23:52:26.705Z,12.20
2023-03-27T23:55:33.558Z,14.27
2023-03-27T23:58:37.312Z,14.85
